createdAt,value
2022-11-13T00:01:25.981Z,98307.34
2022-11-13T00:04:11.597Z,98317.88
2022-11-13T00:06:59.392Z,98296.50
2022-11-13T00:09:45.179Z,98300.03
2022-11-13T00:12:31.218Z,98343.63
2022-11-13T00:15:16.736Z,98313.66
2022-11-13T00:18:03.413Z,98326.38
2022-11-13T00:20:48.840Z,98303.38
2022-11-13T00:23:36.259Z,98312.28
2022-11-13T00:26:24.289Z,98313.88
2022-11-13T00:29:09.875Z,98342.91
2022-11-13T00:31:55.394Z,98324.22
2022-11-13T00:34:47.556Z,98356.91
2022-11-13T00:37:33.523Z,98312.28
2022-11-13T00:40:19.259Z,98320.66
2022-11-13T00:43:05.035Z,98323.38
2022-11-13T00:45:50.918Z,98330.16
2022-11-13T00:48:37.070Z,98296.59
2022-11-13T00:51:23.419Z,98323.47
2022-11-13T00:54:09.364Z,98313.41
2022-11-13T00:56:55.056Z,98276.88
2022-11-13T00:59:40.418Z,98309.09
2022-11-13T01:02:25.924Z,98287.25
2022-11-13T01:05:11.858Z,98317.53
2022-11-13T01:07:57.546Z,98308.91
2022-11-13T01:10:53.063Z,98387.34
2022-11-13T01:13:44.346Z,98305.63
2022-11-13T01:16:30.375Z,98307.25
2022-11-13T01:19:16.091Z,98294.56
2022-11-13T01:22:01.509Z,98298.88
2022-11-13T01:24:47.170Z,98313.22
2022-11-13T01:27:32.805Z,98345.16
2022-11-13T01:30:18.641Z,98317.84
2022-11-13T01:33:04.145Z,98298.41
2022-11-13T01:35:50.560Z,98305.47
2022-11-13T01:38:37.288Z,98288.47
2022-11-13T01:41:27.825Z,98299.84
2022-11-13T01:44:16.232Z,98309.84
2022-11-13T01:47:03.075Z,98282.28
2022-11-13T01:49:51.811Z,98283.69
2022-11-13T01:52:41.265Z,98266.94
2022-11-13T01:55:26.935Z,98306.16
2022-11-13T01:58:15.159Z,98324.88
2022-11-13T02:01:00.986Z,98311.63
2022-11-13T02:03:46.744Z,98273.81
2022-11-13T02:06:54.504Z,98295.66
2022-11-13T02:09:43.054Z,98298.16
2022-11-13T02:12:36.153Z,98310.31
2022-11-13T02:15:26.024Z,98276.00
2022-11-13T02:18:12.792Z,98316.28
2022-11-13T02:21:04.162Z,98299.50
2022-11-13T02:24:22.996Z,98291.16
2022-11-13T02:27:16.038Z,98272.81
2022-11-13T02:30:23.612Z,98275.81
2022-11-13T02:33:29.051Z,98276.09
2022-11-13T02:36:16.093Z,98338.75
2022-11-13T02:39:06.873Z,98255.03
2022-11-13T02:41:52.285Z,98254.50
2022-11-13T02:44:38.178Z,98264.22
2022-11-13T02:47:24.050Z,98248.28
2022-11-13T02:50:10.910Z,98250.69
2022-11-13T02:52:56.819Z,98240.47
2022-11-13T02:55:42.290Z,98271.00
2022-11-13T02:58:27.889Z,98295.88
2022-11-13T03:01:13.492Z,98265.91
2022-11-13T03:03:59.090Z,98267.28
2022-11-13T03:06:44.911Z,98224.88
2022-11-13T03:09:30.751Z,98242.69
2022-11-13T03:12:16.189Z,98225.41
2022-11-13T03:15:01.786Z,98186.56
2022-11-13T03:17:47.311Z,98223.53
2022-11-13T03:20:35.844Z,98234.59
2022-11-13T03:23:21.089Z,98233.78
2022-11-13T03:26:09.683Z,98268.06
2022-11-13T03:28:55.605Z,98241.91
2022-11-13T03:31:41.321Z,98257.28
2022-11-13T03:34:26.613Z,98267.00
2022-11-13T03:37:12.171Z,98254.84
2022-11-13T03:39:57.732Z,98276.72
2022-11-13T03:42:43.340Z,98275.38
2022-11-13T03:45:28.634Z,98212.97
2022-11-13T03:48:15.740Z,98244.59
2022-11-13T03:51:01.411Z,98242.72
2022-11-13T03:53:46.910Z,98298.06
2022-11-13T03:56:32.611Z,98281.56
2022-11-13T03:59:17.991Z,98281.84
2022-11-13T04:02:03.618Z,98261.06
2022-11-13T04:04:50.409Z,98260.28
2022-11-13T04:07:36.359Z,98282.41
2022-11-13T04:10:22.610Z,98338.03
2022-11-13T04:13:08.562Z,98274.06
2022-11-13T04:15:54.067Z,98314.81
2022-11-13T04:18:39.510Z,98297.28
2022-11-13T04:21:24.978Z,98317.28
2022-11-13T04:24:10.690Z,98268.97
2022-11-13T04:26:56.136Z,98286.78
2022-11-13T04:29:41.881Z,98291.38
2022-11-13T04:32:27.436Z,98316.19
2022-11-13T04:35:13.177Z,98317.81
2022-11-13T04:37:58.606Z,98366.38
2022-11-13T04:40:44.476Z,98312.41
2022-11-13T04:43:30.092Z,98290.56
2022-11-13T04:46:15.455Z,98299.75
2022-11-13T04:49:00.923Z,98308.94
2022-11-13T04:51:46.438Z,98282.50
2022-11-13T04:54:32.096Z,98276.00
2022-11-13T04:57:17.749Z,98301.88
2022-11-13T05:00:05.551Z,98283.53
2022-11-13T05:02:51.399Z,98273.31
2022-11-13T05:05:37.101Z,98251.47
2022-11-13T05:08:22.567Z,98276.81
2022-11-13T05:11:09.433Z,98291.63
2022-11-13T05:13:58.315Z,98282.19
2022-11-13T05:16:46.689Z,98308.91
2022-11-13T05:19:35.357Z,98299.72
2022-11-13T05:22:20.839Z,98325.88
2022-11-13T05:25:06.577Z,98376.88
2022-11-13T05:27:52.189Z,98342.34
2022-11-13T05:30:37.675Z,98333.97
2022-11-13T05:33:23.085Z,98344.50
2022-11-13T05:36:13.981Z,98335.88
2022-11-13T05:38:59.726Z,98316.72
2022-11-13T05:41:45.266Z,98327.53
2022-11-13T05:44:31.108Z,98335.34
2022-11-13T05:47:16.784Z,98318.63
2022-11-13T05:50:02.283Z,98372.88
2022-11-13T05:52:48.342Z,98340.75
2022-11-13T05:55:33.742Z,98395.53
2022-11-13T05:58:19.557Z,98356.69
2022-11-13T06:01:29.531Z,98310.28
2022-11-13T06:04:15.019Z,98324.03
2022-11-13T06:07:00.435Z,98403.63
2022-11-13T06:09:45.748Z,98349.13
2022-11-13T06:12:31.278Z,98361.00
2022-11-13T06:15:16.836Z,98386.63
2022-11-13T06:18:02.531Z,98385.94
2022-11-13T06:20:48.326Z,98404.38
2022-11-13T06:23:36.149Z,98459.13
2022-11-13T06:26:28.090Z,98457.53
2022-11-13T06:29:14.012Z,98422.94
2022-11-13T06:31:59.533Z,98442.50
2022-11-13T06:34:45.055Z,98457.63
2022-11-13T06:37:34.591Z,98462.34
2022-11-13T06:40:20.002Z,98478.47
2022-11-13T06:43:05.449Z,98452.34
2022-11-13T06:45:51.147Z,98458.22
2022-11-13T06:48:37.120Z,98469.03
2022-11-13T06:51:25.889Z,98461.06
2022-11-13T06:54:11.356Z,98481.00
2022-11-13T06:56:57.073Z,98501.97
2022-11-13T06:59:43.782Z,98500.59
2022-11-13T07:02:31.225Z,98510.66
2022-11-13T07:05:17.539Z,98494.34
2022-11-13T07:08:03.405Z,98484.91
2022-11-13T07:10:56.397Z,98533.50
2022-11-13T07:13:42.364Z,98493.78
2022-11-13T07:16:38.958Z,98486.06
2022-11-13T07:19:30.522Z,98532.09
2022-11-13T07:22:16.235Z,98518.00
2022-11-13T07:25:01.935Z,98512.09
2022-11-13T07:27:47.622Z,98541.94
2022-11-13T07:31:49.723Z,98541.50
2022-11-13T07:34:35.203Z,98535.09
2022-11-13T07:37:20.657Z,98519.25
2022-11-13T07:40:12.089Z,98530.59
2022-11-13T07:42:59.581Z,98530.91
2022-11-13T07:45:45.106Z,98560.25
2022-11-13T07:48:31.037Z,98531.44
2022-11-13T07:51:16.834Z,98529.16
2022-11-13T07:54:02.158Z,98587.16
2022-11-13T07:56:48.331Z,98539.03
2022-11-13T07:59:33.890Z,98537.47
2022-11-13T08:02:23.509Z,98556.91
2022-11-13T08:05:11.423Z,98540.53
2022-11-13T08:07:56.879Z,98555.06
2022-11-13T08:10:42.735Z,98555.63
2022-11-13T08:13:28.142Z,98541.56
2022-11-13T08:16:14.139Z,98607.59
2022-11-13T08:18:59.932Z,98551.28
2022-11-13T08:21:45.749Z,98559.38
2022-11-13T08:24:31.296Z,98512.03
2022-11-13T08:27:16.994Z,98571.78
2022-11-13T08:30:02.774Z,98584.44
2022-11-13T08:32:49.119Z,98562.34
2022-11-13T08:35:34.703Z,98572.34
2022-11-13T08:38:20.968Z,98550.81
2022-11-13T08:41:09.280Z,98589.75
2022-11-13T08:43:55.458Z,98562.03
2022-11-13T08:46:41.774Z,98602.41
2022-11-13T08:49:27.182Z,98531.66
2022-11-13T08:52:12.607Z,98564.47
2022-11-13T08:54:58.805Z,98560.31
2022-11-13T08:57:44.282Z,98605.03
2022-11-13T09:00:31.358Z,98571.44
2022-11-13T09:03:16.648Z,98561.47
2022-11-13T09:06:05.842Z,98586.91
2022-11-13T09:08:51.590Z,98575.31
2022-11-13T09:11:37.201Z,98570.84
2022-11-13T09:14:25.148Z,98571.47
2022-11-13T09:17:10.935Z,98582.28
2022-11-13T09:20:02.185Z,98595.56
2022-11-13T09:22:49.134Z,98591.03
2022-11-13T09:25:37.798Z,98583.81
2022-11-13T09:28:23.851Z,98578.16
2022-11-13T09:31:09.405Z,98572.53
2022-11-13T09:33:54.679Z,98572.59
2022-11-13T09:36:40.432Z,98578.00
2022-11-13T09:39:26.036Z,98579.38
2022-11-13T09:42:19.176Z,98594.75
2022-11-13T09:45:13.482Z,98609.88
2022-11-13T09:48:29.906Z,98603.72
2022-11-13T09:51:21.449Z,98621.13
2022-11-13T09:54:12.439Z,98595.44
2022-11-13T09:57:30.561Z,98625.91
2022-11-13T10:00:21.812Z,98773.88
2022-11-13T10:04:00.645Z,98639.75
2022-11-13T10:06:44.385Z,98633.22
2022-11-13T10:09:41.045Z,98709.19
2022-11-13T10:12:31.292Z,98631.53
2022-11-13T10:15:17.948Z,98654.13
2022-11-13T10:18:11.263Z,98643.59
2022-11-13T10:21:21.464Z,98669.19
2022-11-13T10:24:22.438Z,98632.22
2022-11-13T10:27:13.258Z,98632.78
2022-11-13T10:29:58.705Z,98650.88
2022-11-13T10:32:45.282Z,98688.16
2022-11-13T10:35:45.172Z,98671.06
2022-11-13T10:38:56.874Z,98695.88
2022-11-13T10:41:51.407Z,98684.25
2022-11-13T10:44:36.975Z,98665.28
2022-11-13T10:47:56.923Z,98668.19
2022-11-13T10:50:31.691Z,98683.78
2022-11-13T10:53:18.830Z,98706.91
2022-11-13T10:56:14.736Z,98690.44
2022-11-13T10:59:17.234Z,98692.06
2022-11-13T11:02:15.904Z,98682.84
2022-11-13T11:05:23.206Z,98673.88
2022-11-13T11:08:11.033Z,98691.41
2022-11-13T11:11:36.286Z,98713.78
2022-11-13T11:14:28.534Z,98718.56
2022-11-13T11:17:17.213Z,98738.88
2022-11-13T11:20:20.887Z,98734.19
2022-11-13T11:23:32.024Z,98728.19
2022-11-13T11:26:29.942Z,98711.91
2022-11-13T11:29:30.715Z,98710.72
2022-11-13T11:32:32.858Z,98727.66
2022-11-13T11:35:22.593Z,98719.56
2022-11-13T11:38:22.222Z,98738.88
2022-11-13T11:41:20.469Z,98747.53
2022-11-13T11:44:15.112Z,98763.66
2022-11-13T11:47:00.906Z,98746.94
2022-11-13T11:49:47.188Z,98782.38
2022-11-13T11:52:42.113Z,98777.75
2022-11-13T11:55:40.971Z,98769.25
2022-11-13T11:58:56.922Z,98779.88
2022-11-13T12:01:51.817Z,98794.00
2022-11-13T12:05:30.984Z,98807.91
2022-11-13T12:08:28.679Z,98784.69
2022-11-13T12:11:34.033Z,98795.63
2022-11-13T12:14:31.543Z,98780.22
2022-11-13T12:17:38.274Z,98797.94
2022-11-13T12:20:49.181Z,98802.94
2022-11-13T12:23:48.422Z,98809.25
2022-11-13T12:26:56.183Z,98822.59
2022-11-13T12:30:10.272Z,98828.97
2022-11-13T12:33:17.884Z,98836.94
2022-11-13T12:36:03.974Z,98917.13
2022-11-13T12:39:26.396Z,98853.69
2022-11-13T12:42:21.641Z,98836.31
2022-11-13T12:45:22.288Z,98861.84
2022-11-13T12:48:10.535Z,98852.88
2022-11-13T12:51:08.008Z,98881.00
2022-11-13T12:53:56.272Z,98868.91
2022-11-13T12:56:42.079Z,98860.53
2022-11-13T12:59:38.624Z,98860.59
2022-11-13T13:02:40.832Z,98905.16
2022-11-13T13:05:54.383Z,98901.06
2022-11-13T13:09:04.270Z,98900.50
2022-11-13T13:12:07.482Z,98906.59
2022-11-13T13:14:55.792Z,98953.56
2022-11-13T13:17:41.512Z,98892.53
2022-11-13T13:20:34.946Z,98947.63
2022-11-13T13:23:31.974Z,98918.19
2022-11-13T13:26:23.774Z,98939.84
2022-11-13T13:29:19.175Z,98930.50
2022-11-13T13:32:13.673Z,98935.78
2022-11-13T13:35:19.342Z,98939.28
2022-11-13T13:38:21.680Z,98930.09
2022-11-13T13:41:22.690Z,98935.81
2022-11-13T13:44:34.614Z,98957.97
2022-11-13T13:47:40.575Z,98957.75
2022-11-13T13:50:32.195Z,98936.19
2022-11-13T13:53:32.208Z,98959.75
2022-11-13T13:56:20.790Z,98964.22
2022-11-13T13:59:14.895Z,98983.00
2022-11-13T14:02:01.934Z,99024.06
2022-11-13T14:04:50.737Z,98979.19
2022-11-13T14:07:38.316Z,98985.41
2022-11-13T14:10:28.036Z,99000.84
2022-11-13T14:13:14.781Z,98979.44
2022-11-13T14:16:05.735Z,98966.38
2022-11-13T14:18:51.335Z,98973.97
2022-11-13T14:21:37.544Z,98984.63
2022-11-13T14:24:27.106Z,99002.13
2022-11-13T14:27:19.541Z,98996.88
2022-11-13T14:30:09.892Z,98993.59
2022-11-13T14:32:57.995Z,98995.56
2022-11-13T14:35:56.743Z,99019.41
2022-11-13T14:38:51.804Z,99054.94
2022-11-13T14:41:46.129Z,99022.09
2022-11-13T14:44:34.252Z,99016.97
2022-11-13T14:47:27.138Z,99046.78
2022-11-13T14:50:15.576Z,99049.91
2022-11-13T14:53:10.031Z,99019.91
2022-11-13T14:55:58.220Z,99033.78
2022-11-13T14:58:47.566Z,99042.91
2022-11-13T15:01:33.090Z,99053.22
2022-11-13T15:04:18.885Z,99072.03
2022-11-13T15:07:19.989Z,99083.34
2022-11-13T15:10:06.326Z,99041.75
2022-11-13T15:12:53.049Z,99044.09
2022-11-13T15:15:39.131Z,99058.22
2022-11-13T15:18:25.436Z,99077.41
2022-11-13T15:21:11.293Z,99073.06
2022-11-13T15:23:57.677Z,99087.44
2022-11-13T15:26:43.102Z,99067.09
2022-11-13T15:29:32.131Z,99087.44
2022-11-13T15:32:17.780Z,99078.44
2022-11-13T15:35:11.206Z,99098.06
2022-11-13T15:37:57.521Z,99120.97
2022-11-13T15:40:43.201Z,99088.72
2022-11-13T15:43:28.876Z,99101.22
2022-11-13T15:46:17.526Z,99090.34
2022-11-13T15:49:03.220Z,99124.34
2022-11-13T15:51:52.185Z,99142.94
2022-11-13T15:54:38.903Z,99130.19
2022-11-13T15:57:26.884Z,99139.91
2022-11-13T16:00:17.872Z,99101.59
2022-11-13T16:03:04.901Z,99108.13
2022-11-13T16:05:51.376Z,99145.03
2022-11-13T16:08:36.957Z,99128.44
2022-11-13T16:11:22.446Z,99122.34
2022-11-13T16:14:11.293Z,99158.31
2022-11-13T16:16:58.642Z,99153.63
2022-11-13T16:19:47.731Z,99141.25
2022-11-13T16:22:33.702Z,99179.22
2022-11-13T16:25:21.853Z,99165.91
2022-11-13T16:28:17.105Z,99139.63
2022-11-13T16:31:07.630Z,99167.31
2022-11-13T16:33:55.278Z,99149.56
2022-11-13T16:36:43.352Z,99154.22
2022-11-13T16:39:29.016Z,99167.06
2022-11-13T16:42:16.487Z,99186.34
2022-11-13T16:45:01.985Z,99176.06
2022-11-13T16:47:47.996Z,99185.06
2022-11-13T16:50:37.031Z,99182.59
2022-11-13T16:53:22.838Z,99195.81
2022-11-13T16:56:15.564Z,99201.88
2022-11-13T16:59:01.565Z,99241.69
2022-11-13T17:01:47.350Z,99186.31
2022-11-13T17:04:33.243Z,99216.00
2022-11-13T17:07:18.971Z,99181.53
2022-11-13T17:10:29.710Z,99182.69
2022-11-13T17:13:13.591Z,99202.97
2022-11-13T17:16:02.562Z,99185.66
2022-11-13T17:18:49.634Z,99188.28
2022-11-13T17:21:37.919Z,99198.16
2022-11-13T17:24:27.106Z,99198.06
2022-11-13T17:27:13.091Z,99196.63
2022-11-13T17:29:58.688Z,99239.59
2022-11-13T17:32:44.292Z,99188.72
2022-11-13T17:35:29.784Z,99198.16
2022-11-13T17:38:15.892Z,99198.75
2022-11-13T17:41:09.958Z,99203.41
2022-11-13T17:44:00.836Z,99203.41
2022-11-13T17:46:50.106Z,99198.00
2022-11-13T17:49:35.883Z,99212.63
2022-11-13T17:52:25.334Z,99291.16
2022-11-13T17:55:13.260Z,99229.19
2022-11-13T17:58:01.967Z,99239.56
2022-11-13T18:00:47.466Z,99247.63
2022-11-13T18:03:35.626Z,99255.66
2022-11-13T18:06:21.986Z,99244.06
2022-11-13T18:09:07.866Z,99231.81
2022-11-13T18:11:55.175Z,99242.41
2022-11-13T18:14:40.677Z,99229.09
2022-11-13T18:17:26.815Z,99245.59
2022-11-13T18:20:12.451Z,99240.53
2022-11-13T18:22:58.877Z,99245.00
2022-11-13T18:25:44.788Z,99221.16
2022-11-13T18:28:30.321Z,99239.03
2022-11-13T18:31:18.644Z,99244.03
2022-11-13T18:34:05.898Z,99246.88
2022-11-13T18:36:51.606Z,99234.56
2022-11-13T18:39:37.089Z,99240.75
2022-11-13T18:42:22.647Z,99241.06
2022-11-13T18:45:09.015Z,99243.16
2022-11-13T18:47:54.811Z,99245.00
2022-11-13T18:50:40.709Z,99259.50
2022-11-13T18:53:31.768Z,99239.09
2022-11-13T18:56:23.014Z,99248.84
2022-11-13T18:59:11.221Z,99256.50
2022-11-13T19:01:57.280Z,99257.78
2022-11-13T19:04:42.779Z,99249.03
2022-11-13T19:07:28.534Z,99259.47
2022-11-13T19:10:16.527Z,99249.47
2022-11-13T19:13:02.367Z,99266.94
2022-11-13T19:15:50.415Z,99281.81
2022-11-13T19:18:38.010Z,99293.16
2022-11-13T19:21:25.710Z,99271.63
2022-11-13T19:24:14.797Z,99276.22
2022-11-13T19:27:00.749Z,99252.34
2022-11-13T19:29:46.477Z,99268.19
2022-11-13T19:32:32.093Z,99268.34
2022-11-13T19:35:17.427Z,99253.38
2022-11-13T19:38:03.617Z,99286.75
2022-11-13T19:40:52.325Z,99255.97
2022-11-13T19:43:40.872Z,99272.28
2022-11-13T19:46:26.933Z,99259.78
2022-11-13T19:49:12.452Z,99249.66
2022-11-13T19:51:58.619Z,99271.84
2022-11-13T19:54:45.240Z,99243.25
2022-11-13T19:57:31.388Z,99254.94
2022-11-13T20:00:18.060Z,99239.78
2022-11-13T20:03:07.467Z,99269.91
2022-11-13T20:05:55.732Z,99256.28
2022-11-13T20:08:42.201Z,99286.44
2022-11-13T20:11:28.302Z,99308.81
2022-11-13T20:14:14.281Z,99276.84
2022-11-13T20:17:00.186Z,99272.22
2022-11-13T20:19:45.498Z,99270.22
2022-11-13T20:22:31.782Z,99282.63
2022-11-13T20:25:17.335Z,99278.94
2022-11-13T20:28:03.085Z,99284.41
2022-11-13T20:30:49.698Z,99297.16
2022-11-13T20:33:35.934Z,99301.91
2022-11-13T20:36:23.213Z,99301.31
2022-11-13T20:39:09.567Z,99283.88
2022-11-13T20:41:55.143Z,99277.84
2022-11-13T20:44:40.893Z,99287.31
2022-11-13T20:47:27.385Z,99292.25
2022-11-13T20:50:12.822Z,99302.06
2022-11-13T20:52:58.307Z,99301.25
2022-11-13T20:55:43.863Z,99309.09
2022-11-13T20:58:30.110Z,99298.19
2022-11-13T21:01:18.824Z,99337.56
2022-11-13T21:04:04.896Z,99340.81
2022-11-13T21:06:52.446Z,99308.47
2022-11-13T21:09:38.131Z,99320.59
2022-11-13T21:12:23.902Z,99303.72
2022-11-13T21:15:10.146Z,99308.44
2022-11-13T21:17:55.615Z,99334.53
2022-11-13T21:20:41.095Z,99321.38
2022-11-13T21:23:29.564Z,99342.53
2022-11-13T21:26:15.588Z,99334.88
2022-11-13T21:29:01.008Z,99403.53
2022-11-13T21:31:46.900Z,99351.63
2022-11-13T21:34:32.804Z,99321.44
2022-11-13T21:37:18.619Z,99339.38
2022-11-13T21:40:08.362Z,99341.72
2022-11-13T21:42:56.094Z,99331.06
2022-11-13T21:45:41.554Z,99329.66
2022-11-13T21:48:33.175Z,99334.66
2022-11-13T21:51:19.160Z,99333.63
2022-11-13T21:54:05.576Z,99335.09
2022-11-13T21:56:50.941Z,99333.41
2022-11-13T21:59:36.491Z,99339.59
2022-11-13T22:02:22.108Z,99322.47
2022-11-13T22:05:08.051Z,99372.00
2022-11-13T22:07:53.261Z,99377.59
2022-11-13T22:10:39.173Z,99378.09
2022-11-13T22:13:24.705Z,99389.91
2022-11-13T22:16:12.211Z,99399.19
2022-11-13T22:19:00.275Z,99379.88
2022-11-13T22:21:47.332Z,99391.81
2022-11-13T22:24:32.896Z,99398.56
2022-11-13T22:27:18.584Z,99439.28
2022-11-13T22:30:05.027Z,99403.50
2022-11-13T22:32:50.872Z,99389.75
2022-11-13T22:35:36.251Z,99378.44
2022-11-13T22:38:21.690Z,99393.66
2022-11-13T22:41:11.493Z,99393.44
2022-11-13T22:44:02.349Z,99394.66
2022-11-13T22:46:48.117Z,99443.63
2022-11-13T22:49:33.486Z,99391.19
2022-11-13T22:52:18.926Z,99402.09
2022-11-13T22:55:07.818Z,99387.50
2022-11-13T22:57:54.294Z,99378.47
2022-11-13T23:00:39.608Z,99412.56
2022-11-13T23:03:25.533Z,99410.50
2022-11-13T23:06:11.403Z,99417.69
2022-11-13T23:08:57.084Z,99419.53
2022-11-13T23:11:42.540Z,99390.16
2022-11-13T23:14:30.573Z,99384.19
2022-11-13T23:17:16.387Z,99394.47
2022-11-13T23:20:01.924Z,99432.91
2022-11-13T23:22:47.924Z,99434.56
2022-11-13T23:25:34.306Z,99397.97
2022-11-13T23:28:19.779Z,99395.09
2022-11-13T23:31:05.985Z,99432.09
2022-11-13T23:33:51.451Z,99390.78
2022-11-13T23:36:36.958Z,99416.91
2022-11-13T23:39:22.514Z,99422.25
2022-11-13T23:42:08.188Z,99418.34
2022-11-13T23:44:53.864Z,99423.06
2022-11-13T23:47:39.541Z,99424.50
2022-11-13T23:50:24.850Z,99417.13
2022-11-13T23:53:11.085Z,99435.22
2022-11-13T23:55:56.777Z,99422.66
2022-11-13T23:58:42.556Z,99410.13
